createdAt,value
2023-12-23T00:00:14.543Z,98400.38
2023-12-23T00:02:41.248Z,98411.50
2023-12-23T00:05:13.284Z,98419.13
2023-12-23T00:07:40.302Z,98428.28
2023-12-23T00:10:07.961Z,98418.31
2023-12-23T00:12:34.844Z,98399.47
2023-12-23T00:15:01.806Z,98419.81
2023-12-23T00:17:31.128Z,98418.72
2023-12-23T00:19:58.246Z,98430.91
2023-12-23T00:22:25.167Z,98430.69
2023-12-23T00:24:51.905Z,98431.91
2023-12-23T00:27:18.910Z,98428.28
2023-12-23T00:29:45.623Z,98427.22
2023-12-23T00:32:12.369Z,98440.13
2023-12-23T00:34:42.332Z,98438.81
2023-12-23T00:37:09.136Z,98440.63
2023-12-23T00:39:35.870Z,98444.91
2023-12-23T00:42:02.608Z,98428.22
2023-12-23T00:44:29.577Z,98421.94
2023-12-23T00:46:56.487Z,98455.16
2023-12-23T00:49:25.676Z,98445.41
2023-12-23T00:51:52.466Z,98436.59
2023-12-23T00:54:19.171Z,98452.78
2023-12-23T00:56:45.994Z,98463.97
2023-12-23T00:59:15.931Z,98456.34
2023-12-23T01:01:45.723Z,98474.09
2023-12-23T01:04:12.610Z,98472.69
2023-12-23T01:06:39.330Z,98473.09
2023-12-23T01:09:06.515Z,98475.84
2023-12-23T01:11:33.244Z,98464.06
2023-12-23T01:14:01.463Z,98452.69
2023-12-23T01:16:28.414Z,98443.84
2023-12-23T01:18:58.069Z,98422.75
2023-12-23T01:21:24.968Z,98393.31
2023-12-23T01:23:51.750Z,98399.22
2023-12-23T01:26:20.501Z,98386.31
2023-12-23T01:28:47.272Z,98388.16
2023-12-23T01:31:14.106Z,98371.75
2023-12-23T01:33:40.928Z,98354.41
2023-12-23T01:36:07.914Z,98329.56
2023-12-23T01:38:34.716Z,98329.16
2023-12-23T01:41:01.966Z,98352.50
2023-12-23T01:43:28.816Z,98372.97
2023-12-23T01:46:01.216Z,98370.03
2023-12-23T01:48:43.297Z,98378.34
2023-12-23T01:51:14.946Z,98394.00
2023-12-23T01:53:44.830Z,98412.03
2023-12-23T01:56:12.837Z,98404.63
2023-12-23T01:58:39.662Z,98415.66
2023-12-23T02:01:06.547Z,98403.09
2023-12-23T02:03:33.391Z,98404.63
2023-12-23T02:06:00.496Z,98420.06
2023-12-23T02:08:27.350Z,98392.75
2023-12-23T02:11:06.051Z,98413.06
2023-12-23T02:13:45.825Z,98419.16
2023-12-23T02:16:13.414Z,98392.03
2023-12-23T02:18:40.318Z,98370.63
2023-12-23T02:21:09.809Z,98397.31
2023-12-23T02:23:36.500Z,98412.22
2023-12-23T02:26:05.499Z,98427.59
2023-12-23T02:28:34.147Z,98429.22
2023-12-23T02:31:04.539Z,98419.75
2023-12-23T02:33:31.472Z,98419.13
2023-12-23T02:35:58.382Z,98406.94
2023-12-23T02:38:25.215Z,98393.25
2023-12-23T02:40:53.187Z,98394.38
2023-12-23T02:43:20.045Z,98401.06
2023-12-23T02:45:46.883Z,98401.06
2023-12-23T02:48:13.663Z,98407.72
2023-12-23T02:50:40.353Z,98407.63
2023-12-23T02:53:07.303Z,98391.13
2023-12-23T02:55:33.982Z,98408.94
2023-12-23T02:58:06.922Z,98416.28
2023-12-23T03:00:33.577Z,98406.94
2023-12-23T03:03:00.467Z,98411.16
2023-12-23T03:05:27.409Z,98405.94
2023-12-23T03:07:59.402Z,98403.16
2023-12-23T03:10:26.565Z,98421.72
2023-12-23T03:13:02.596Z,98437.97
2023-12-23T03:15:32.150Z,98479.06
2023-12-23T03:17:59.043Z,98464.63
2023-12-23T03:20:25.927Z,98473.66
2023-12-23T03:22:53.230Z,98482.78
2023-12-23T03:25:22.251Z,98493.03
2023-12-23T03:27:51.736Z,98478.38
2023-12-23T03:30:18.486Z,98457.84
2023-12-23T03:32:45.585Z,98436.84
2023-12-23T03:35:13.535Z,98437.63
2023-12-23T03:37:40.426Z,98453.16
2023-12-23T03:40:10.589Z,98441.72
2023-12-23T03:42:37.679Z,98414.88
2023-12-23T03:45:04.652Z,98397.69
2023-12-23T03:47:31.410Z,98409.69
2023-12-23T03:49:58.164Z,98395.50
2023-12-23T03:52:27.194Z,98407.91
2023-12-23T03:54:56.281Z,98435.69
2023-12-23T03:57:24.198Z,98447.22
2023-12-23T03:59:51.063Z,98455.97
2023-12-23T04:02:18.678Z,98456.56
2023-12-23T04:04:45.541Z,98462.53
2023-12-23T04:07:12.329Z,98488.63
2023-12-23T04:09:39.003Z,98497.56
2023-12-23T04:12:08.904Z,98499.16
2023-12-23T04:14:35.651Z,98499.38
2023-12-23T04:17:02.469Z,98499.09
2023-12-23T04:19:29.325Z,98489.25
2023-12-23T04:21:56.033Z,98508.84
2023-12-23T04:24:22.938Z,98511.06
2023-12-23T04:26:49.630Z,98521.28
2023-12-23T04:29:16.528Z,98529.47
2023-12-23T04:31:43.305Z,98528.34
2023-12-23T04:34:10.281Z,98525.75
2023-12-23T04:36:37.380Z,98509.66
2023-12-23T04:39:04.209Z,98542.78
2023-12-23T04:41:30.826Z,98547.66
2023-12-23T04:44:00.182Z,98533.31
2023-12-23T04:46:27.131Z,98551.72
2023-12-23T04:48:58.073Z,98516.53
2023-12-23T04:51:24.850Z,98568.97
2023-12-23T04:53:51.735Z,98469.44
2023-12-23T04:56:23.463Z,98564.66
2023-12-23T04:58:50.416Z,98438.97
2023-12-23T05:01:17.151Z,98546.09
2023-12-23T05:03:43.875Z,98503.88
2023-12-23T05:06:10.611Z,98581.66
2023-12-23T05:08:39.367Z,98566.06
2023-12-23T05:11:06.098Z,98583.72
2023-12-23T05:13:32.832Z,98579.81
2023-12-23T05:15:59.777Z,98583.72
2023-12-23T05:18:26.493Z,98596.81
2023-12-23T05:20:53.438Z,98575.69
2023-12-23T05:23:20.123Z,98574.13
2023-12-23T05:25:46.828Z,98568.28
2023-12-23T05:28:13.566Z,98567.59
2023-12-23T05:30:40.345Z,98590.34
2023-12-23T05:33:07.178Z,98603.09
2023-12-23T05:35:33.956Z,98592.16
2023-12-23T05:38:04.151Z,98592.75
2023-12-23T05:40:31.633Z,98591.50
2023-12-23T05:42:58.396Z,98596.84
2023-12-23T05:45:25.016Z,98586.25
2023-12-23T05:47:51.872Z,98580.75
2023-12-23T05:50:18.861Z,98599.28
2023-12-23T05:52:45.700Z,98601.59
2023-12-23T05:55:12.640Z,98600.03
2023-12-23T05:57:39.388Z,98618.53
2023-12-23T06:00:09.289Z,98612.44
2023-12-23T06:02:37.386Z,98605.97
2023-12-23T06:05:04.248Z,98625.50
2023-12-23T06:07:31.313Z,98613.72
2023-12-23T06:09:59.832Z,98630.38
2023-12-23T06:12:26.731Z,98615.91
2023-12-23T06:14:53.450Z,98625.41
2023-12-23T06:17:20.470Z,98625.50
2023-12-23T06:19:47.503Z,98624.50
2023-12-23T06:22:14.174Z,98636.72
2023-12-23T06:24:40.914Z,98646.47
2023-12-23T06:27:07.588Z,98635.84
2023-12-23T06:29:34.299Z,98624.75
2023-12-23T06:32:01.038Z,98633.91
2023-12-23T06:34:27.995Z,98651.41
2023-12-23T06:36:54.855Z,98662.44
2023-12-23T06:39:21.853Z,98678.72
2023-12-23T06:41:48.654Z,98675.09
2023-12-23T06:44:15.594Z,98693.03
2023-12-23T06:46:42.573Z,98699.06
2023-12-23T06:49:09.548Z,98714.91
2023-12-23T06:51:36.490Z,98717.13
2023-12-23T06:54:03.348Z,98707.91
2023-12-23T06:56:30.069Z,98721.28
2023-12-23T06:58:56.772Z,98713.06
2023-12-23T07:01:25.358Z,98720.78
2023-12-23T07:03:54.301Z,98711.53
2023-12-23T07:06:24.054Z,98733.88
2023-12-23T07:08:51.009Z,98741.56
2023-12-23T07:11:17.931Z,98734.91
2023-12-23T07:13:44.609Z,98740.28
2023-12-23T07:16:11.331Z,98746.19
2023-12-23T07:18:38.379Z,98754.91
2023-12-23T07:21:05.329Z,98755.72
2023-12-23T07:23:32.072Z,98784.84
2023-12-23T07:25:58.899Z,98782.78
2023-12-23T07:28:26.024Z,98789.78
2023-12-23T07:30:55.431Z,98792.72
2023-12-23T07:33:22.921Z,98781.94
2023-12-23T07:35:49.758Z,98772.22
2023-12-23T07:38:19.322Z,98786.56
2023-12-23T07:40:46.191Z,98799.97
2023-12-23T07:43:13.070Z,98807.69
2023-12-23T07:45:39.790Z,98812.16
2023-12-23T07:48:06.970Z,98818.00
2023-12-23T07:50:33.780Z,98817.31
2023-12-23T07:53:00.817Z,98838.78
2023-12-23T07:55:27.636Z,98858.91
2023-12-23T07:57:54.281Z,98857.22
2023-12-23T08:00:21.302Z,98874.28
2023-12-23T08:02:48.172Z,98863.25
2023-12-23T08:05:17.024Z,98872.50
2023-12-23T08:07:44.352Z,98884.28
2023-12-23T08:10:11.206Z,98885.38
2023-12-23T08:12:37.870Z,98887.66
2023-12-23T08:15:05.254Z,98886.72
2023-12-23T08:17:32.047Z,98893.56
2023-12-23T08:19:58.836Z,98903.63
2023-12-23T08:22:25.517Z,98913.47
2023-12-23T08:24:54.966Z,98908.97
2023-12-23T08:27:21.771Z,98928.09
2023-12-23T08:29:48.698Z,98934.38
2023-12-23T08:32:15.421Z,98943.72
2023-12-23T08:34:42.356Z,98942.94
2023-12-23T08:37:09.083Z,98955.94
2023-12-23T08:39:38.231Z,98962.56
2023-12-23T08:42:07.673Z,98967.03
2023-12-23T08:44:34.427Z,98968.31
2023-12-23T08:47:01.092Z,98992.50
2023-12-23T08:49:27.884Z,99006.22
2023-12-23T08:51:54.557Z,99000.34
2023-12-23T08:54:24.383Z,99010.63
2023-12-23T08:56:51.320Z,99035.97
2023-12-23T08:59:18.046Z,99059.97
2023-12-23T09:01:45.106Z,99066.19
2023-12-23T09:04:11.860Z,99061.06
2023-12-23T09:06:38.720Z,99077.50
2023-12-23T09:09:05.596Z,99105.19
2023-12-23T09:11:32.575Z,99103.25
2023-12-23T09:13:59.359Z,99094.63
2023-12-23T09:16:26.068Z,99105.34
2023-12-23T09:18:52.834Z,99125.31
2023-12-23T09:21:19.560Z,99099.59
2023-12-23T09:23:47.810Z,99088.88
2023-12-23T09:26:14.511Z,99090.66
2023-12-23T09:28:41.245Z,99090.13
2023-12-23T09:31:07.920Z,99096.06
2023-12-23T09:33:34.820Z,99122.88
2023-12-23T09:36:01.549Z,99121.38
2023-12-23T09:38:28.419Z,99137.53
2023-12-23T09:40:55.592Z,99138.22
2023-12-23T09:43:22.683Z,99135.63
2023-12-23T09:45:53.499Z,99137.31
2023-12-23T09:48:20.555Z,99152.78
2023-12-23T09:50:48.904Z,99156.25
2023-12-23T09:53:15.670Z,99154.69
2023-12-23T09:55:45.884Z,99151.38
2023-12-23T09:58:12.795Z,99152.28
2023-12-23T10:00:42.329Z,99153.50
2023-12-23T10:03:09.209Z,99165.22
2023-12-23T10:05:45.000Z,99172.75
2023-12-23T10:08:15.113Z,99176.72
2023-12-23T10:10:41.937Z,99172.00
2023-12-23T10:13:08.833Z,99173.34
2023-12-23T10:15:36.922Z,99177.16
2023-12-23T10:18:03.916Z,99166.53
2023-12-23T10:20:32.160Z,99162.28
2023-12-23T10:22:59.440Z,99162.47
2023-12-23T10:25:26.281Z,99159.81
2023-12-23T10:27:58.917Z,99155.06
2023-12-23T10:30:26.291Z,99146.97
2023-12-23T10:33:03.106Z,99150.19
2023-12-23T10:35:33.416Z,99153.69
2023-12-23T10:38:03.506Z,99147.72
2023-12-23T10:40:30.360Z,99147.38
2023-12-23T10:42:58.642Z,99142.88
2023-12-23T10:45:25.933Z,99143.63
2023-12-23T10:47:53.814Z,99141.97
2023-12-23T10:50:24.091Z,99141.25
2023-12-23T10:52:56.536Z,99135.97
2023-12-23T10:55:25.031Z,99135.34
2023-12-23T10:57:54.993Z,99125.34
2023-12-23T11:00:21.703Z,99129.78
2023-12-23T11:02:53.064Z,99126.00
2023-12-23T11:05:21.590Z,99112.56
2023-12-23T11:07:53.739Z,99114.50
2023-12-23T11:10:25.736Z,99107.31
2023-12-23T11:12:52.899Z,99103.78
2023-12-23T11:15:22.512Z,99105.06
2023-12-23T11:17:49.374Z,99111.13
2023-12-23T11:20:34.859Z,99090.50
2023-12-23T11:23:21.916Z,99084.13
2023-12-23T11:25:48.743Z,99084.00
2023-12-23T11:28:15.670Z,99092.91
2023-12-23T11:30:57.563Z,99096.47
2023-12-23T11:33:26.965Z,99102.19
2023-12-23T11:35:59.781Z,99105.75
2023-12-23T11:38:29.325Z,99103.31
2023-12-23T11:40:56.555Z,99087.56
2023-12-23T11:43:24.423Z,99093.06
2023-12-23T11:45:51.582Z,99082.75
2023-12-23T11:48:22.885Z,99080.13
2023-12-23T11:50:51.494Z,99077.38
2023-12-23T11:53:18.358Z,99076.03
2023-12-23T11:55:45.949Z,99079.53
2023-12-23T11:58:13.810Z,99069.59
2023-12-23T12:00:40.733Z,99078.88
2023-12-23T12:03:07.420Z,99078.72
2023-12-23T12:05:34.206Z,99088.63
2023-12-23T12:08:04.369Z,99095.72
2023-12-23T12:10:31.325Z,99091.28
2023-12-23T12:12:58.110Z,99088.63
2023-12-23T12:15:24.956Z,99095.59
2023-12-23T12:17:52.898Z,99102.84
2023-12-23T12:20:21.542Z,99098.25
2023-12-23T12:22:49.253Z,99083.59
2023-12-23T12:25:16.803Z,99071.47
2023-12-23T12:27:43.729Z,99073.91
2023-12-23T12:30:12.101Z,99078.09
2023-12-23T12:32:44.809Z,99081.72
2023-12-23T12:35:12.570Z,99065.44
2023-12-23T12:37:43.002Z,99075.94
2023-12-23T12:40:13.855Z,99079.66
2023-12-23T12:42:50.238Z,99066.66
2023-12-23T12:45:17.446Z,99070.91
2023-12-23T12:47:44.249Z,99073.63
2023-12-23T12:50:11.101Z,99076.53
2023-12-23T12:52:37.786Z,99061.63
2023-12-23T12:55:05.313Z,99066.00
2023-12-23T12:57:31.963Z,99060.44
2023-12-23T12:59:58.777Z,99054.22
2023-12-23T13:02:25.768Z,99066.66
2023-12-23T13:04:52.648Z,99059.09
2023-12-23T13:07:19.373Z,99053.97
2023-12-23T13:09:46.260Z,99050.84
2023-12-23T13:12:13.016Z,99060.31
2023-12-23T13:14:39.795Z,99057.41
2023-12-23T13:17:06.783Z,99046.97
2023-12-23T13:19:33.729Z,99061.56
2023-12-23T13:22:00.416Z,99043.75
2023-12-23T13:24:27.226Z,99057.31
2023-12-23T13:26:53.899Z,99046.56
2023-12-23T13:29:21.854Z,99060.53
2023-12-23T13:31:48.661Z,99058.44
2023-12-23T13:34:15.468Z,99051.78
2023-12-23T13:36:42.371Z,99042.72
2023-12-23T13:39:09.315Z,99043.78
2023-12-23T13:41:36.059Z,99048.81
2023-12-23T13:44:02.810Z,99060.28
2023-12-23T13:46:29.541Z,99054.69
2023-12-23T13:48:56.328Z,99053.81
2023-12-23T13:51:24.220Z,99054.94
2023-12-23T13:53:51.379Z,99048.47
2023-12-23T13:56:18.306Z,99059.69
2023-12-23T13:58:44.990Z,99041.50
2023-12-23T14:01:11.760Z,99049.09
2023-12-23T14:03:38.510Z,99054.91
2023-12-23T14:06:05.703Z,99063.31
2023-12-23T14:08:32.379Z,99062.22
2023-12-23T14:11:04.749Z,99062.53
2023-12-23T14:13:31.460Z,99078.56
2023-12-23T14:15:59.643Z,99079.94
2023-12-23T14:18:26.638Z,99075.59
2023-12-23T14:20:53.400Z,99077.91
2023-12-23T14:23:27.073Z,99090.88
2023-12-23T14:25:53.976Z,99077.22
2023-12-23T14:28:20.651Z,99081.09
2023-12-23T14:30:47.412Z,99096.78
2023-12-23T14:33:14.257Z,99097.34
2023-12-23T14:35:41.168Z,99098.69
2023-12-23T14:38:07.944Z,99097.38
2023-12-23T14:40:37.389Z,99095.25
2023-12-23T14:43:04.249Z,99095.00
2023-12-23T14:45:31.104Z,99086.38
2023-12-23T14:47:57.864Z,99096.75
2023-12-23T14:50:24.643Z,99092.28
2023-12-23T14:52:51.736Z,99102.22
2023-12-23T14:55:18.613Z,99104.19
2023-12-23T14:57:45.364Z,99104.38
2023-12-23T15:00:12.990Z,99109.09
2023-12-23T15:02:40.819Z,99113.97
2023-12-23T15:05:07.985Z,99118.78
2023-12-23T15:07:34.693Z,99109.78
2023-12-23T15:10:01.651Z,99127.28
2023-12-23T15:12:31.407Z,99118.06
2023-12-23T15:14:58.156Z,99129.44
2023-12-23T15:17:24.930Z,99137.91
2023-12-23T15:19:51.716Z,99126.97
2023-12-23T15:22:18.402Z,99123.34
2023-12-23T15:24:47.336Z,99124.34
2023-12-23T15:27:15.221Z,99128.41
2023-12-23T15:29:41.999Z,99137.44
2023-12-23T15:32:08.713Z,99127.88
2023-12-23T15:34:35.432Z,99139.34
2023-12-23T15:37:02.161Z,99141.53
2023-12-23T15:39:28.943Z,99152.28
2023-12-23T15:41:55.785Z,99143.25
2023-12-23T15:44:22.694Z,99151.72
2023-12-23T15:46:49.571Z,99155.88
2023-12-23T15:49:16.589Z,99150.69
2023-12-23T15:51:43.436Z,99164.91
2023-12-23T15:54:13.532Z,99181.59
2023-12-23T15:56:40.516Z,99174.22
2023-12-23T15:59:10.486Z,99195.66
2023-12-23T16:01:37.421Z,99197.09
2023-12-23T16:04:04.449Z,99208.09
2023-12-23T16:06:31.386Z,99208.34
2023-12-23T16:08:58.084Z,99217.63
2023-12-23T16:11:25.049Z,99223.69
2023-12-23T16:13:51.952Z,99222.31
2023-12-23T16:16:18.750Z,99230.78
2023-12-23T16:18:45.721Z,99238.97
2023-12-23T16:21:12.657Z,99225.59
2023-12-23T16:23:39.749Z,99240.09
2023-12-23T16:26:13.767Z,99238.97
2023-12-23T16:28:40.413Z,99239.53
2023-12-23T16:31:07.208Z,99232.44
2023-12-23T16:33:34.122Z,99242.81
2023-12-23T16:36:00.844Z,99239.84
2023-12-23T16:38:27.570Z,99237.63
2023-12-23T16:40:56.153Z,99234.38
2023-12-23T16:43:22.822Z,99231.63
2023-12-23T16:45:49.477Z,99235.19
2023-12-23T16:48:16.302Z,99243.91
2023-12-23T16:50:44.102Z,99245.03
2023-12-23T16:53:11.084Z,99246.66
2023-12-23T16:55:37.744Z,99255.09
2023-12-23T16:58:04.688Z,99244.19
2023-12-23T17:00:31.430Z,99252.66
2023-12-23T17:02:58.231Z,99254.03
2023-12-23T17:05:25.002Z,99259.25
2023-12-23T17:07:54.923Z,99255.91
2023-12-23T17:10:21.574Z,99264.97
2023-12-23T17:12:48.251Z,99261.09
2023-12-23T17:15:15.076Z,99265.19
2023-12-23T17:17:42.183Z,99255.66
2023-12-23T17:20:10.330Z,99276.97
2023-12-23T17:22:39.549Z,99268.50
2023-12-23T17:25:06.616Z,99267.91
2023-12-23T17:27:33.517Z,99270.13
2023-12-23T17:30:00.463Z,99269.03
2023-12-23T17:32:27.396Z,99284.84
2023-12-23T17:34:56.128Z,99291.97
2023-12-23T17:37:22.970Z,99282.91
2023-12-23T17:39:52.357Z,99275.53
2023-12-23T17:42:18.992Z,99290.03
2023-12-23T17:44:46.839Z,99297.38
2023-12-23T17:47:13.673Z,99301.78
2023-12-23T17:49:40.370Z,99305.56
2023-12-23T17:52:08.492Z,99313.53
2023-12-23T17:54:35.245Z,99306.16
2023-12-23T17:57:01.999Z,99303.94
2023-12-23T17:59:28.755Z,99300.06
2023-12-23T18:01:55.552Z,99300.38
2023-12-23T18:04:25.306Z,99301.47
2023-12-23T18:06:51.965Z,99298.09
2023-12-23T18:09:21.594Z,99295.75
2023-12-23T18:11:48.334Z,99290.28
2023-12-23T18:14:15.111Z,99289.47
2023-12-23T18:16:43.216Z,99294.09
2023-12-23T18:19:10.172Z,99297.88
2023-12-23T18:21:37.055Z,99303.34
2023-12-23T18:24:06.801Z,99303.34
2023-12-23T18:26:33.626Z,99290.81
2023-12-23T18:29:00.379Z,99297.09
2023-12-23T18:31:27.329Z,99302.81
2023-12-23T18:33:54.434Z,99298.97
2023-12-23T18:36:23.400Z,99291.91
2023-12-23T18:38:50.115Z,99300.63
2023-12-23T18:41:17.054Z,99296.81
2023-12-23T18:43:43.960Z,99295.72
2023-12-23T18:46:12.262Z,99300.66
2023-12-23T18:48:43.405Z,99293.03
2023-12-23T18:51:10.369Z,99295.16
2023-12-23T18:53:37.747Z,99295.69
2023-12-23T18:56:04.774Z,99300.59
2023-12-23T18:58:31.708Z,99300.59
2023-12-23T19:00:58.489Z,99307.69
2023-12-23T19:03:26.973Z,99307.41
2023-12-23T19:05:53.795Z,99306.03
2023-12-23T19:08:20.563Z,99298.94
2023-12-23T19:10:47.305Z,99298.69
2023-12-23T19:13:14.117Z,99298.97
2023-12-23T19:15:40.858Z,99306.59
2023-12-23T19:18:07.983Z,99304.41
2023-12-23T19:20:34.864Z,99298.94
2023-12-23T19:23:02.097Z,99303.06
2023-12-23T19:25:30.581Z,99307.97
2023-12-23T19:27:57.391Z,99299.69
2023-12-23T19:30:24.333Z,99298.34
2023-12-23T19:32:51.601Z,99294.81
2023-12-23T19:35:18.764Z,99296.22
2023-12-23T19:37:45.738Z,99291.59
2023-12-23T19:40:13.094Z,99293.44
2023-12-23T19:42:39.929Z,99298.09
2023-12-23T19:45:08.393Z,99298.66
2023-12-23T19:47:35.275Z,99295.09
2023-12-23T19:50:02.144Z,99299.69
2023-12-23T19:52:28.801Z,99302.47
2023-12-23T19:54:55.646Z,99302.19
2023-12-23T19:57:22.588Z,99299.44
2023-12-23T19:59:49.347Z,99310.94
2023-12-23T20:02:16.251Z,99315.84
2023-12-23T20:04:43.030Z,99310.91
2023-12-23T20:07:09.975Z,99303.84
2023-12-23T20:09:37.602Z,99292.66
2023-12-23T20:12:05.582Z,99301.88
2023-12-23T20:14:34.264Z,99293.16
2023-12-23T20:17:01.130Z,99289.63
2023-12-23T20:19:28.022Z,99303.78
2023-12-23T20:21:54.801Z,99292.84
2023-12-23T20:24:21.706Z,99298.34
2023-12-23T20:26:48.399Z,99306.00
2023-12-23T20:29:15.386Z,99312.50
2023-12-23T20:31:42.147Z,99307.59
2023-12-23T20:34:08.967Z,99310.59
2023-12-23T20:36:43.148Z,99316.94
2023-12-23T20:39:10.305Z,99315.00
2023-12-23T20:41:42.435Z,99313.09
2023-12-23T20:44:09.482Z,99307.66
2023-12-23T20:46:36.259Z,99313.41
2023-12-23T20:49:03.782Z,99320.13
2023-12-23T20:51:32.378Z,99326.19
2023-12-23T20:53:59.303Z,99334.97
2023-12-23T20:56:28.963Z,99343.16
2023-12-23T20:58:57.350Z,99347.53
2023-12-23T21:01:26.670Z,99345.88
2023-12-23T21:03:54.335Z,99353.28
2023-12-23T21:06:21.213Z,99355.72
2023-12-23T21:08:49.444Z,99356.25
2023-12-23T21:11:17.438Z,99360.09
2023-12-23T21:13:45.364Z,99361.44
2023-12-23T21:16:12.143Z,99361.41
2023-12-23T21:18:45.608Z,99351.84
2023-12-23T21:21:13.490Z,99351.28
2023-12-23T21:23:40.608Z,99364.69
2023-12-23T21:26:23.448Z,99366.63
2023-12-23T21:28:50.477Z,99380.81
2023-12-23T21:31:19.670Z,99387.13
2023-12-23T21:33:46.526Z,99391.13
2023-12-23T21:36:13.458Z,99392.25
2023-12-23T21:38:40.258Z,99394.41
2023-12-23T21:41:07.062Z,99390.03
2023-12-23T21:43:33.963Z,99396.63
2023-12-23T21:46:00.853Z,99399.91
2023-12-23T21:48:27.623Z,99412.25
2023-12-23T21:50:54.449Z,99424.03
2023-12-23T21:53:24.573Z,99428.97
2023-12-23T21:55:51.798Z,99419.66
2023-12-23T21:58:18.656Z,99432.47
2023-12-23T22:00:45.415Z,99423.47
2023-12-23T22:03:12.246Z,99430.31
2023-12-23T22:05:39.040Z,99425.34
2023-12-23T22:08:06.322Z,99428.13
2023-12-23T22:10:33.038Z,99426.75
2023-12-23T22:13:03.080Z,99432.19
2023-12-23T22:15:29.835Z,99440.09
2023-12-23T22:17:56.522Z,99435.72
2023-12-23T22:20:26.192Z,99437.91
2023-12-23T22:22:56.216Z,99437.94
2023-12-23T22:25:23.128Z,99446.44
2023-12-23T22:27:49.898Z,99445.59
2023-12-23T22:30:17.235Z,99444.25
2023-12-23T22:32:44.135Z,99449.16
2023-12-23T22:35:10.976Z,99453.25
2023-12-23T22:37:38.105Z,99462.28
2023-12-23T22:40:05.460Z,99466.41
2023-12-23T22:42:32.387Z,99463.34
2023-12-23T22:44:59.213Z,99449.75
2023-12-23T22:47:26.492Z,99442.88
2023-12-23T22:49:53.238Z,99449.13
2023-12-23T22:52:22.115Z,99453.50
2023-12-23T22:54:50.962Z,99457.31
2023-12-23T22:57:19.350Z,99465.03
2023-12-23T22:59:46.294Z,99456.31
2023-12-23T23:02:13.181Z,99460.63
2023-12-23T23:04:42.953Z,99456.25
2023-12-23T23:07:12.170Z,99451.38
2023-12-23T23:09:39.821Z,99458.22
2023-12-23T23:12:13.029Z,99464.44
2023-12-23T23:14:39.784Z,99466.09
2023-12-23T23:17:08.812Z,99468.00
2023-12-23T23:19:35.852Z,99471.53
2023-12-23T23:22:02.663Z,99489.88
2023-12-23T23:24:29.324Z,99493.09
2023-12-23T23:26:55.971Z,99491.78
2023-12-23T23:29:22.851Z,99490.13
2023-12-23T23:31:49.635Z,99500.00
2023-12-23T23:34:16.635Z,99498.34
2023-12-23T23:36:43.556Z,99503.31
2023-12-23T23:39:10.329Z,99508.22
2023-12-23T23:41:40.274Z,99506.53
2023-12-23T23:44:08.532Z,99509.91
2023-12-23T23:46:36.455Z,99513.13
2023-12-23T23:49:03.104Z,99511.78
2023-12-23T23:51:32.949Z,99520.22
2023-12-23T23:53:59.760Z,99523.59
2023-12-23T23:56:26.637Z,99516.16
2023-12-23T23:58:53.830Z,99524.91
